createdAt,value
2019-02-20T00:00:46.127Z,82.30
2019-02-20T00:03:18.588Z,82.20
2019-02-20T00:05:50.899Z,82.10
2019-02-20T00:08:22.725Z,82.00
2019-02-20T00:10:54.729Z,82.00
2019-02-20T00:13:26.566Z,82.00
2019-02-20T00:15:59.216Z,82.00
2019-02-20T00:18:31.705Z,82.00
2019-02-20T00:21:03.008Z,81.90
2019-02-20T00:23:34.782Z,82.00
2019-02-20T00:26:08.222Z,81.80
2019-02-20T00:28:41.511Z,81.60
2019-02-20T00:31:14.822Z,81.60
2019-02-20T00:33:46.584Z,81.60
2019-02-20T00:36:18.372Z,81.80
2019-02-20T00:38:52.175Z,82.00
2019-02-20T00:41:23.683Z,82.30
2019-02-20T00:44:28.639Z,82.50
2019-02-20T00:47:19.920Z,82.80
2019-02-20T00:49:53.388Z,83.20
2019-02-20T00:52:36.372Z,83.30
2019-02-20T00:55:09.859Z,83.30
2019-02-20T00:57:42.155Z,83.10
2019-02-20T01:00:14.778Z,83.10
2019-02-20T01:02:46.598Z,83.00
2019-02-20T01:05:18.311Z,83.00
2019-02-20T01:07:50.116Z,83.20
2019-02-20T01:10:21.860Z,83.30
2019-02-20T01:12:54.628Z,83.40
2019-02-20T01:15:27.932Z,83.30
2019-02-20T01:17:59.774Z,83.30
2019-02-20T01:20:33.235Z,83.30
2019-02-20T01:23:05.098Z,83.30
2019-02-20T01:25:36.902Z,83.40
2019-02-20T01:28:09.581Z,83.50
2019-02-20T01:30:41.152Z,83.60
2019-02-20T01:33:13.879Z,83.60
2019-02-20T01:35:45.673Z,83.60
2019-02-20T01:38:17.214Z,83.60
2019-02-20T01:40:48.780Z,83.60
2019-02-20T01:43:20.384Z,83.70
2019-02-20T01:45:54.167Z,83.70
2019-02-20T01:48:26.956Z,83.60
2019-02-20T01:51:01.242Z,83.70
2019-02-20T01:53:32.734Z,83.70
2019-02-20T01:56:04.530Z,83.70
2019-02-20T01:58:36.930Z,83.80
2019-02-20T02:01:09.717Z,83.90
2019-02-20T02:03:41.446Z,83.90
2019-02-20T02:06:13.150Z,84.20
2019-02-20T02:08:45.006Z,84.40
2019-02-20T02:11:16.910Z,84.70
2019-02-20T02:13:48.500Z,85.00
2019-02-20T02:16:20.036Z,84.90
2019-02-20T02:18:51.733Z,84.80
2019-02-20T02:21:23.700Z,84.90
2019-02-20T02:23:57.406Z,84.90
2019-02-20T02:26:29.208Z,84.80
2019-02-20T02:29:00.764Z,84.60
2019-02-20T02:31:33.188Z,84.30
2019-02-20T02:34:05.500Z,84.40
2019-02-20T02:36:38.379Z,84.30
2019-02-20T02:39:10.016Z,84.50
2019-02-20T02:41:41.748Z,84.60
2019-02-20T02:44:13.374Z,84.60
2019-02-20T02:46:45.089Z,84.70
2019-02-20T02:49:16.790Z,84.90
2019-02-20T02:51:48.308Z,85.00
2019-02-20T02:54:23.111Z,85.10
2019-02-20T02:56:55.335Z,85.00
2019-02-20T02:59:27.030Z,85.10
2019-02-20T03:01:59.099Z,85.10
2019-02-20T03:04:30.973Z,85.10
2019-02-20T03:07:03.551Z,85.10
2019-02-20T03:09:35.248Z,85.00
2019-02-20T03:12:07.196Z,85.00
2019-02-20T03:14:38.926Z,85.00
2019-02-20T03:17:10.602Z,85.00
2019-02-20T03:19:43.537Z,85.10
2019-02-20T03:22:15.360Z,85.10
2019-02-20T03:24:46.964Z,85.10
2019-02-20T03:27:18.741Z,85.20
2019-02-20T03:29:50.270Z,85.10
2019-02-20T03:32:21.907Z,85.00
2019-02-20T03:34:53.748Z,85.00
2019-02-20T03:37:30.905Z,85.00
2019-02-20T03:40:05.492Z,84.80
2019-02-20T03:42:37.330Z,84.70
2019-02-20T03:45:08.973Z,84.80
2019-02-20T03:47:40.961Z,84.30
2019-02-20T03:50:12.691Z,84.80
2019-02-20T03:52:46.717Z,84.80
2019-02-20T03:55:18.203Z,85.00
2019-02-20T03:57:49.749Z,85.00
2019-02-20T04:00:21.529Z,85.10
2019-02-20T04:02:54.464Z,85.30
2019-02-20T04:05:28.904Z,85.30
2019-02-20T04:08:00.852Z,85.30
2019-02-20T04:10:32.695Z,85.20
2019-02-20T04:13:04.260Z,85.20
2019-02-20T04:15:36.006Z,85.10
2019-02-20T04:18:07.992Z,85.20
2019-02-20T04:20:39.852Z,85.10
2019-02-20T04:23:11.592Z,85.00
2019-02-20T04:25:43.121Z,84.90
2019-02-20T04:28:15.333Z,85.00
2019-02-20T04:30:47.370Z,84.80
2019-02-20T04:33:19.138Z,84.80
2019-02-20T04:35:50.867Z,84.80
2019-02-20T04:38:22.588Z,84.80
2019-02-20T04:40:54.135Z,84.70
2019-02-20T04:43:26.134Z,84.80
2019-02-20T04:45:59.374Z,84.80
2019-02-20T04:48:31.955Z,84.60
2019-02-20T04:51:03.685Z,84.70
2019-02-20T04:53:35.499Z,84.60
2019-02-20T04:56:07.330Z,84.80
2019-02-20T04:58:40.836Z,84.70
2019-02-20T05:01:13.104Z,84.80
2019-02-20T05:03:44.956Z,84.70
2019-02-20T05:06:16.694Z,84.70
2019-02-20T05:08:49.054Z,84.60
2019-02-20T05:11:21.927Z,84.70
2019-02-20T05:13:53.749Z,84.80
2019-02-20T05:16:25.544Z,84.80
2019-02-20T05:18:57.234Z,84.80
2019-02-20T05:21:28.936Z,84.90
2019-02-20T05:24:00.845Z,84.70
2019-02-20T05:26:32.590Z,84.80
2019-02-20T05:29:04.486Z,84.80
2019-02-20T05:31:36.442Z,84.70
2019-02-20T05:34:08.328Z,84.60
2019-02-20T05:36:40.270Z,84.60
2019-02-20T05:39:12.342Z,84.60
2019-02-20T05:41:43.959Z,84.60
2019-02-20T05:44:15.802Z,84.60
2019-02-20T05:46:47.521Z,84.60
2019-02-20T05:49:19.324Z,84.60
2019-02-20T05:51:51.063Z,84.80
2019-02-20T05:54:33.860Z,84.80
2019-02-20T05:56:57.380Z,84.80
2019-02-20T05:59:29.464Z,84.80
2019-02-20T06:02:02.992Z,84.70
2019-02-20T06:04:34.759Z,84.60
2019-02-20T06:07:06.597Z,84.60
2019-02-20T06:09:38.292Z,84.50
2019-02-20T06:12:09.972Z,84.60
2019-02-20T06:14:41.942Z,84.40
2019-02-20T06:17:13.696Z,84.30
2019-02-20T06:19:45.370Z,84.30
2019-02-20T06:22:17.210Z,84.20
2019-02-20T06:24:49.238Z,84.20
2019-02-20T06:27:21.246Z,84.10
2019-02-20T06:29:52.996Z,84.00
2019-02-20T06:32:25.274Z,83.90
2019-02-20T06:34:56.983Z,83.90
2019-02-20T06:37:29.105Z,83.70
2019-02-20T06:40:01.500Z,83.70
2019-02-20T06:42:35.066Z,83.50
2019-02-20T06:45:07.626Z,83.30
2019-02-20T06:47:40.530Z,83.00
2019-02-20T06:50:13.156Z,82.80
2019-02-20T06:52:44.944Z,82.60
2019-02-20T06:55:17.946Z,82.30
2019-02-20T06:57:50.211Z,82.20
2019-02-20T07:00:22.464Z,82.20
2019-02-20T07:02:54.645Z,82.50
2019-02-20T07:05:37.529Z,82.60
2019-02-20T07:08:57.450Z,82.00
2019-02-20T07:12:11.377Z,81.60
2019-02-20T07:15:11.422Z,81.30
2019-02-20T07:18:02.692Z,81.20
2019-02-20T07:21:16.231Z,81.10
2019-02-20T07:24:12.511Z,81.40
2019-02-20T07:27:11.006Z,81.10
2019-02-20T07:30:01.681Z,80.00
2019-02-20T07:32:33.927Z,79.30
2019-02-20T07:35:06.573Z,78.70
2019-02-20T07:37:39.187Z,77.80
2019-02-20T07:40:12.740Z,78.40
2019-02-20T07:42:44.592Z,78.40
2019-02-20T07:45:17.316Z,78.20
2019-02-20T07:47:49.300Z,77.80
2019-02-20T07:50:21.496Z,76.90
2019-02-20T07:53:03.910Z,76.50
2019-02-20T07:55:35.930Z,76.00
2019-02-20T07:58:11.973Z,76.00
2019-02-20T08:00:44.218Z,75.50
2019-02-20T08:03:16.006Z,74.80
2019-02-20T08:05:49.684Z,73.40
2019-02-20T08:08:21.478Z,71.50
2019-02-20T08:10:53.406Z,68.40
2019-02-20T08:13:25.606Z,67.10
2019-02-20T08:15:57.512Z,65.00
2019-02-20T08:18:29.276Z,63.00
2019-02-20T08:21:01.218Z,60.80
2019-02-20T08:23:33.385Z,59.70
2019-02-20T08:26:05.347Z,60.60
2019-02-20T08:28:39.539Z,61.60
2019-02-20T08:31:16.412Z,62.60
2019-02-20T08:33:51.003Z,63.50
2019-02-20T08:36:24.424Z,64.80
2019-02-20T08:38:56.762Z,66.00
2019-02-20T08:41:30.393Z,67.50
2019-02-20T08:44:02.053Z,68.70
2019-02-20T08:46:34.193Z,69.30
2019-02-20T08:49:06.007Z,69.30
2019-02-20T08:51:38.522Z,67.00
2019-02-20T08:54:10.406Z,63.10
2019-02-20T08:56:42.310Z,59.80
2019-02-20T08:59:14.661Z,57.60
2019-02-20T09:01:46.417Z,56.40
2019-02-20T09:04:18.220Z,55.80
2019-02-20T09:06:50.263Z,55.50
2019-02-20T09:09:24.185Z,54.20
2019-02-20T09:11:56.295Z,54.30
2019-02-20T09:14:28.315Z,55.90
2019-02-20T09:17:00.141Z,57.30
2019-02-20T09:19:31.954Z,58.80
2019-02-20T09:22:04.943Z,60.10
2019-02-20T09:24:37.074Z,59.80
2019-02-20T09:27:09.475Z,58.00
2019-02-20T09:29:43.674Z,57.80
2019-02-20T09:32:16.926Z,58.30
2019-02-20T09:34:48.898Z,59.50
2019-02-20T09:37:21.297Z,61.20
2019-02-20T09:39:53.255Z,62.20
2019-02-20T09:42:25.218Z,62.80
2019-02-20T09:44:57.612Z,63.50
2019-02-20T09:47:29.436Z,64.80
2019-02-20T09:50:01.722Z,66.80
2019-02-20T09:52:33.703Z,69.10
2019-02-20T09:55:05.900Z,70.30
2019-02-20T09:57:39.157Z,70.90
2019-02-20T10:00:13.150Z,68.90
2019-02-20T10:02:47.189Z,66.60
2019-02-20T10:05:19.167Z,65.70
2019-02-20T10:07:51.132Z,65.70
2019-02-20T10:10:23.157Z,66.50
2019-02-20T10:12:54.778Z,68.10
2019-02-20T10:15:26.558Z,69.40
2019-02-20T10:18:01.199Z,70.80
2019-02-20T10:20:32.945Z,71.30
2019-02-20T10:23:05.159Z,72.40
2019-02-20T10:25:38.199Z,74.00
2019-02-20T10:28:15.223Z,75.70
2019-02-20T10:30:46.962Z,76.50
2019-02-20T10:33:19.194Z,77.40
2019-02-20T10:35:51.001Z,78.40
2019-02-20T10:38:22.794Z,76.70
2019-02-20T10:40:54.633Z,75.30
2019-02-20T10:43:26.254Z,73.80
2019-02-20T10:45:59.853Z,73.00
2019-02-20T10:48:31.750Z,72.80
2019-02-20T10:51:03.779Z,72.40
2019-02-20T10:53:35.625Z,72.00
2019-02-20T10:56:09.579Z,71.20
2019-02-20T10:58:41.018Z,70.60
2019-02-20T11:01:12.942Z,70.30
2019-02-20T11:03:45.852Z,69.90
2019-02-20T11:06:18.730Z,69.70
2019-02-20T11:08:50.765Z,69.80
2019-02-20T11:11:22.727Z,70.20
2019-02-20T11:13:54.693Z,70.70
2019-02-20T11:16:26.622Z,71.00
2019-02-20T11:18:58.291Z,71.20
2019-02-20T11:21:33.314Z,71.50
2019-02-20T11:24:04.734Z,72.00
2019-02-20T11:26:46.025Z,72.00
2019-02-20T11:29:12.532Z,72.20
2019-02-20T11:31:44.204Z,71.90
2019-02-20T11:34:16.135Z,71.60
2019-02-20T11:36:50.004Z,70.90
2019-02-20T11:39:21.656Z,70.10
2019-02-20T11:41:53.742Z,69.80
2019-02-20T11:44:25.366Z,69.60
2019-02-20T11:46:58.077Z,69.50
2019-02-20T11:49:34.416Z,69.60
2019-02-20T11:52:06.240Z,69.30
2019-02-20T11:54:38.392Z,69.30
2019-02-20T11:57:11.457Z,70.10
2019-02-20T11:59:44.570Z,69.10
2019-02-20T12:02:15.818Z,68.40
2019-02-20T12:04:48.696Z,67.60
2019-02-20T12:07:20.610Z,67.00
2019-02-20T12:09:54.433Z,66.50
2019-02-20T12:12:26.446Z,66.40
2019-02-20T12:14:58.116Z,66.20
2019-02-20T12:17:35.060Z,65.70
2019-02-20T12:20:07.087Z,65.40
2019-02-20T12:22:39.458Z,64.80
2019-02-20T12:25:10.961Z,64.50
2019-02-20T12:27:43.269Z,64.50
2019-02-20T12:30:17.048Z,64.40
2019-02-20T12:32:49.021Z,64.10
2019-02-20T12:35:20.971Z,63.60
2019-02-20T12:37:53.571Z,63.60
2019-02-20T12:40:25.394Z,63.50
2019-02-20T12:42:57.426Z,63.30
2019-02-20T12:45:30.116Z,62.90
2019-02-20T12:48:02.727Z,62.50
2019-02-20T12:50:35.074Z,62.20
2019-02-20T12:53:08.280Z,62.20
2019-02-20T12:55:40.211Z,62.30
2019-02-20T12:58:12.736Z,62.50
2019-02-20T13:00:47.103Z,62.80
2019-02-20T13:03:19.000Z,63.00
2019-02-20T13:05:53.794Z,63.10
2019-02-20T13:08:25.647Z,63.10
2019-02-20T13:10:57.546Z,62.90
2019-02-20T13:13:29.849Z,62.90
2019-02-20T13:16:09.435Z,62.70
2019-02-20T13:18:36.876Z,62.60
2019-02-20T13:21:10.901Z,62.50
2019-02-20T13:23:45.437Z,62.10
2019-02-20T13:26:17.598Z,61.70
2019-02-20T13:28:49.378Z,61.50
2019-02-20T13:31:22.251Z,61.30
2019-02-20T13:33:56.191Z,60.70
2019-02-20T13:36:28.086Z,60.40
2019-02-20T13:38:59.775Z,60.80
2019-02-20T13:41:31.660Z,61.00
2019-02-20T13:44:03.559Z,62.00
2019-02-20T13:46:35.478Z,61.40
2019-02-20T13:49:07.746Z,61.30
2019-02-20T13:51:40.375Z,61.40
2019-02-20T13:54:12.676Z,61.80
2019-02-20T13:56:44.488Z,62.00
2019-02-20T13:59:16.240Z,62.10
2019-02-20T14:01:48.444Z,62.20
2019-02-20T14:04:20.658Z,62.10
2019-02-20T14:06:52.544Z,62.30
2019-02-20T14:09:24.593Z,62.10
2019-02-20T14:11:56.476Z,62.00
2019-02-20T14:14:28.208Z,62.10
2019-02-20T14:17:00.328Z,62.30
2019-02-20T14:19:34.837Z,62.40
2019-02-20T14:22:07.767Z,63.10
2019-02-20T14:24:42.599Z,62.40
2019-02-20T14:27:20.762Z,62.30
2019-02-20T14:29:54.988Z,62.30
2019-02-20T14:32:27.566Z,62.80
2019-02-20T14:34:59.649Z,62.10
2019-02-20T14:37:32.066Z,62.30
2019-02-20T14:40:04.898Z,62.70
2019-02-20T14:42:36.718Z,63.30
2019-02-20T14:45:09.364Z,63.90
2019-02-20T14:47:41.108Z,64.30
2019-02-20T14:50:14.709Z,64.50
2019-02-20T14:52:48.341Z,64.80
2019-02-20T14:55:20.520Z,65.80
2019-02-20T14:57:52.398Z,65.20
2019-02-20T15:00:24.918Z,65.30
2019-02-20T15:02:58.070Z,65.50
2019-02-20T15:05:30.513Z,65.70
2019-02-20T15:08:02.651Z,65.60
2019-02-20T15:10:35.678Z,65.70
2019-02-20T15:13:07.700Z,65.60
2019-02-20T15:15:39.849Z,65.60
2019-02-20T15:18:12.048Z,65.70
2019-02-20T15:20:44.163Z,65.60
2019-02-20T15:23:16.780Z,65.50
2019-02-20T15:25:49.728Z,65.20
2019-02-20T15:28:21.884Z,65.10
2019-02-20T15:30:53.826Z,65.10
2019-02-20T15:33:26.070Z,65.20
2019-02-20T15:35:59.520Z,65.30
2019-02-20T15:38:33.594Z,65.40
2019-02-20T15:41:07.652Z,65.70
2019-02-20T15:43:45.814Z,66.00
2019-02-20T15:46:17.632Z,66.20
2019-02-20T15:48:49.751Z,66.50
2019-02-20T15:51:22.545Z,66.60
2019-02-20T15:53:54.750Z,66.80
2019-02-20T15:56:26.907Z,67.00
2019-02-20T15:58:58.880Z,67.20
2019-02-20T16:01:31.216Z,67.70
2019-02-20T16:04:03.097Z,67.60
2019-02-20T16:06:35.302Z,67.60
2019-02-20T16:09:08.542Z,67.70
2019-02-20T16:11:41.593Z,67.60
2019-02-20T16:14:13.506Z,66.60
2019-02-20T16:16:45.248Z,67.10
2019-02-20T16:19:17.575Z,67.20
2019-02-20T16:21:49.641Z,67.10
2019-02-20T16:24:21.430Z,67.00
2019-02-20T16:26:56.740Z,66.80
2019-02-20T16:29:29.204Z,66.30
2019-02-20T16:32:01.498Z,66.30
2019-02-20T16:34:33.737Z,66.30
2019-02-20T16:37:06.870Z,66.20
2019-02-20T16:39:39.760Z,66.30
2019-02-20T16:42:12.056Z,66.50
2019-02-20T16:44:45.556Z,66.30
2019-02-20T16:47:17.388Z,66.30
2019-02-20T16:49:50.364Z,66.30
2019-02-20T16:52:22.542Z,66.40
2019-02-20T16:54:55.091Z,66.50
2019-02-20T16:57:28.768Z,66.60
2019-02-20T17:00:00.709Z,67.50
2019-02-20T17:02:32.834Z,66.90
2019-02-20T17:05:04.904Z,67.20
2019-02-20T17:07:37.182Z,67.40
2019-02-20T17:10:09.472Z,67.60
2019-02-20T17:12:42.591Z,67.60
2019-02-20T17:15:13.930Z,67.80
2019-02-20T17:17:49.984Z,68.10
2019-02-20T17:20:23.467Z,68.30
2019-02-20T17:22:55.395Z,68.50
2019-02-20T17:25:30.102Z,68.60
2019-02-20T17:28:05.790Z,68.60
2019-02-20T17:30:40.906Z,68.70
2019-02-20T17:33:12.898Z,68.70
2019-02-20T17:35:44.791Z,68.60
2019-02-20T17:38:16.771Z,68.70
2019-02-20T17:40:48.609Z,68.60
2019-02-20T17:43:20.332Z,68.50
2019-02-20T17:45:52.092Z,68.40
2019-02-20T17:48:23.959Z,67.60
2019-02-20T17:50:55.770Z,67.60
2019-02-20T17:53:27.795Z,67.40
2019-02-20T17:55:59.967Z,67.30
2019-02-20T17:58:31.816Z,67.50
2019-02-20T18:01:05.386Z,67.60
2019-02-20T18:03:37.590Z,67.80
2019-02-20T18:06:13.898Z,68.00
2019-02-20T18:08:46.270Z,68.30
2019-02-20T18:11:18.344Z,68.40
2019-02-20T18:13:50.160Z,68.60
2019-02-20T18:16:22.125Z,68.90
2019-02-20T18:18:54.466Z,69.00
2019-02-20T18:21:26.704Z,69.20
2019-02-20T18:23:58.658Z,69.40
2019-02-20T18:26:30.561Z,69.60
2019-02-20T18:29:02.602Z,69.90
2019-02-20T18:31:34.869Z,70.50
2019-02-20T18:34:06.564Z,70.70
2019-02-20T18:36:38.408Z,70.80
2019-02-20T18:39:11.036Z,71.20
2019-02-20T18:41:43.224Z,72.30
2019-02-20T18:44:15.233Z,71.30
2019-02-20T18:46:48.658Z,71.50
2019-02-20T18:49:22.450Z,71.30
2019-02-20T18:51:54.100Z,71.30
2019-02-20T18:54:26.183Z,71.30
2019-02-20T18:56:58.254Z,70.90
2019-02-20T18:59:30.300Z,70.70
2019-02-20T19:02:02.472Z,70.70
2019-02-20T19:04:34.277Z,70.70
2019-02-20T19:07:12.266Z,70.70
2019-02-20T19:09:46.954Z,70.70
2019-02-20T19:13:10.261Z,70.70
2019-02-20T19:16:26.805Z,70.60
2019-02-20T19:19:49.066Z,70.10
2019-02-20T19:23:11.235Z,69.80
2019-02-20T19:26:14.668Z,69.40
2019-02-20T19:29:21.288Z,69.40
2019-02-20T19:32:36.881Z,69.60
2019-02-20T19:35:23.405Z,69.80
2019-02-20T19:38:21.668Z,69.90
2019-02-20T19:41:38.499Z,70.00
2019-02-20T19:44:36.587Z,70.00
2019-02-20T19:47:50.465Z,71.00
2019-02-20T19:51:01.963Z,70.40
2019-02-20T19:53:58.891Z,71.20
2019-02-20T19:56:56.126Z,70.20
2019-02-20T19:59:59.130Z,69.90
2019-02-20T20:03:09.332Z,69.70
2019-02-20T20:06:12.668Z,69.40
2019-02-20T20:09:11.176Z,69.40
2019-02-20T20:12:21.539Z,69.10
2019-02-20T20:15:29.879Z,68.80
2019-02-20T20:18:58.374Z,68.80
2019-02-20T20:22:02.112Z,68.80
2019-02-20T20:25:00.512Z,68.80
2019-02-20T20:28:07.974Z,69.30
2019-02-20T20:31:08.080Z,69.50
2019-02-20T20:34:14.492Z,69.90
2019-02-20T20:37:19.893Z,70.60
2019-02-20T20:40:27.515Z,69.70
2019-02-20T20:43:34.721Z,69.80
2019-02-20T20:46:55.185Z,69.70
2019-02-20T20:49:54.043Z,69.70
2019-02-20T20:52:59.128Z,69.80
2019-02-20T20:55:55.642Z,69.80
2019-02-20T20:59:17.173Z,69.70
2019-02-20T21:01:48.823Z,69.90
2019-02-20T21:04:53.374Z,69.60
2019-02-20T21:08:06.338Z,69.70
2019-02-20T21:11:34.107Z,69.80
2019-02-20T21:14:40.609Z,69.90
2019-02-20T21:18:08.706Z,69.90
2019-02-20T21:21:05.149Z,69.90
2019-02-20T21:23:53.290Z,69.90
2019-02-20T21:26:50.642Z,70.20
2019-02-20T21:29:37.749Z,70.50
2019-02-20T21:32:46.450Z,70.80
2019-02-20T21:35:28.430Z,70.90
2019-02-20T21:38:45.648Z,71.00
2019-02-20T21:41:58.064Z,71.20
2019-02-20T21:44:49.004Z,71.60
2019-02-20T21:47:59.978Z,71.90
2019-02-20T21:51:22.878Z,72.20
2019-02-20T21:54:09.091Z,72.50
2019-02-20T21:57:03.847Z,73.30
2019-02-20T22:00:10.763Z,72.90
2019-02-20T22:02:58.469Z,73.10
2019-02-20T22:06:08.284Z,73.30
2019-02-20T22:08:59.765Z,73.30
2019-02-20T22:12:03.107Z,73.60
2019-02-20T22:14:57.902Z,73.70
2019-02-20T22:17:53.077Z,73.90
2019-02-20T22:21:02.006Z,73.90
2019-02-20T22:23:56.777Z,74.70
2019-02-20T22:26:55.655Z,73.90
2019-02-20T22:30:04.642Z,73.60
2019-02-20T22:33:12.084Z,73.50
2019-02-20T22:36:13.487Z,73.40
2019-02-20T22:39:17.800Z,73.30
2019-02-20T22:42:21.193Z,73.40
2019-02-20T22:45:35.920Z,73.60
2019-02-20T22:48:51.068Z,73.70
2019-02-20T22:51:49.131Z,74.20
2019-02-20T22:54:40.834Z,74.60
2019-02-20T22:58:02.696Z,75.00
2019-02-20T23:01:14.242Z,75.40
2019-02-20T23:04:04.556Z,75.80
2019-02-20T23:06:56.386Z,76.00
2019-02-20T23:10:00.288Z,76.10
2019-02-20T23:13:15.048Z,76.10
2019-02-20T23:15:46.713Z,76.20
2019-02-20T23:18:18.366Z,76.30
2019-02-20T23:20:52.908Z,76.30
2019-02-20T23:23:24.606Z,76.60
2019-02-20T23:25:57.182Z,76.90
2019-02-20T23:28:30.969Z,77.20
2019-02-20T23:31:04.174Z,77.30
2019-02-20T23:33:36.016Z,77.50
2019-02-20T23:36:11.939Z,77.50
2019-02-20T23:38:43.855Z,77.80
2019-02-20T23:41:15.525Z,78.00
2019-02-20T23:43:47.304Z,78.00
2019-02-20T23:46:19.294Z,78.10
2019-02-20T23:48:53.410Z,78.10
2019-02-20T23:51:27.355Z,78.30
2019-02-20T23:53:59.278Z,78.30
2019-02-20T23:56:31.275Z,78.30
2019-02-20T23:59:03.114Z,78.50
